createdAt,value
2022-10-06T00:04:18.389Z,13.89
2022-10-06T00:09:09.081Z,13.87
2022-10-06T00:13:58.936Z,13.74
2022-10-06T00:18:52.456Z,13.81
2022-10-06T00:23:43.085Z,13.77
2022-10-06T00:28:35.106Z,13.74
2022-10-06T00:33:26.009Z,13.69
2022-10-06T00:38:20.998Z,13.63
2022-10-06T00:43:41.282Z,13.60
2022-10-06T00:48:33.898Z,13.57
2022-10-06T00:53:27.941Z,13.54
2022-10-06T00:58:19.728Z,13.52
2022-10-06T01:03:15.211Z,13.51
2022-10-06T01:08:05.823Z,13.52
2022-10-06T01:12:59.197Z,13.50
2022-10-06T01:17:55.156Z,13.50
2022-10-06T01:22:50.739Z,13.48
2022-10-06T01:27:44.179Z,13.46
2022-10-06T01:32:38.405Z,13.43
2022-10-06T01:37:29.127Z,13.35
2022-10-06T01:42:26.506Z,13.38
2022-10-06T01:47:16.968Z,13.35
2022-10-06T01:52:07.824Z,13.24
2022-10-06T01:56:58.900Z,13.26
2022-10-06T02:01:53.324Z,13.19
2022-10-06T02:06:44.473Z,13.16
2022-10-06T02:11:35.496Z,13.12
2022-10-06T02:16:28.512Z,13.05
2022-10-06T02:21:24.890Z,13.04
2022-10-06T02:26:20.501Z,12.99
2022-10-06T02:31:13.595Z,12.93
2022-10-06T02:36:10.691Z,12.85
2022-10-06T02:41:07.020Z,12.79
2022-10-06T02:46:00.128Z,12.78
2022-10-06T02:50:57.732Z,12.73
2022-10-06T02:55:48.172Z,12.72
2022-10-06T03:00:41.723Z,12.71
2022-10-06T03:05:32.637Z,12.71
2022-10-06T03:10:23.417Z,12.74
2022-10-06T03:15:14.324Z,12.79
2022-10-06T03:20:08.385Z,12.78
2022-10-06T03:24:59.326Z,12.77
2022-10-06T03:29:50.110Z,12.75
2022-10-06T03:34:41.258Z,12.70
2022-10-06T03:39:39.162Z,12.50
2022-10-06T03:44:29.220Z,12.44
2022-10-06T03:49:19.393Z,12.39
2022-10-06T03:54:11.222Z,12.33
2022-10-06T03:59:10.304Z,12.29
2022-10-06T04:04:02.390Z,12.25
2022-10-06T04:08:54.793Z,12.21
2022-10-06T04:13:46.018Z,12.15
2022-10-06T04:18:38.541Z,12.09
2022-10-06T04:23:28.711Z,12.03
2022-10-06T04:28:18.908Z,11.96
2022-10-06T04:33:09.347Z,11.90
2022-10-06T04:38:02.657Z,11.85
2022-10-06T04:42:53.300Z,11.78
2022-10-06T04:47:43.829Z,11.71
2022-10-06T04:52:35.879Z,11.65
2022-10-06T04:57:31.490Z,11.60
2022-10-06T05:02:23.428Z,11.54
2022-10-06T05:07:17.734Z,11.48
2022-10-06T05:12:10.011Z,11.43
2022-10-06T05:17:02.882Z,11.40
2022-10-06T05:21:54.689Z,11.35
2022-10-06T05:26:49.096Z,11.29
2022-10-06T05:31:43.973Z,11.26
2022-10-06T05:36:40.250Z,11.21
2022-10-06T05:41:34.901Z,11.13
2022-10-06T05:46:30.641Z,11.09
2022-10-06T05:51:29.394Z,11.06
2022-10-06T05:56:26.907Z,11.03
2022-10-06T06:01:19.693Z,11.00
2022-10-06T06:06:19.995Z,10.98
2022-10-06T06:11:11.912Z,10.98
2022-10-06T06:16:08.193Z,10.95
2022-10-06T06:21:00.277Z,10.96
2022-10-06T06:26:03.545Z,10.96
2022-10-06T06:31:06.945Z,10.94
2022-10-06T06:35:58.330Z,10.96
2022-10-06T06:40:51.296Z,10.93
2022-10-06T06:45:42.093Z,10.97
2022-10-06T06:50:45.925Z,11.02
2022-10-06T06:55:39.136Z,11.08
2022-10-06T07:00:35.259Z,11.14
2022-10-06T07:05:28.236Z,11.20
2022-10-06T07:10:24.302Z,11.26
2022-10-06T07:15:27.307Z,11.33
2022-10-06T07:20:37.082Z,11.40
2022-10-06T07:25:31.674Z,11.49
2022-10-06T07:30:28.170Z,11.55
2022-10-06T07:35:31.686Z,11.63
2022-10-06T07:40:23.185Z,11.70
2022-10-06T07:45:29.767Z,11.79
2022-10-06T07:50:20.304Z,11.88
2022-10-06T07:55:18.664Z,11.91
2022-10-06T08:00:30.234Z,11.98
2022-10-06T08:05:22.052Z,12.04
2022-10-06T08:10:12.765Z,12.08
2022-10-06T08:15:07.056Z,12.13
2022-10-06T08:20:05.931Z,12.21
2022-10-06T08:25:05.869Z,12.29
2022-10-06T08:29:57.860Z,12.39
2022-10-06T08:34:51.001Z,12.47
2022-10-06T08:39:46.353Z,12.54
2022-10-06T08:44:44.934Z,12.62
2022-10-06T08:49:40.022Z,12.72
2022-10-06T08:54:35.190Z,12.85
2022-10-06T08:59:35.311Z,13.05
2022-10-06T09:04:29.781Z,13.25
2022-10-06T09:09:47.481Z,13.50
2022-10-06T09:14:43.662Z,13.73
2022-10-06T09:19:41.794Z,13.90
2022-10-06T09:24:37.463Z,14.06
2022-10-06T09:29:32.053Z,14.22
2022-10-06T09:34:28.448Z,14.41
2022-10-06T09:39:27.190Z,14.71
2022-10-06T09:44:27.642Z,15.08
2022-10-06T09:49:22.950Z,15.51
2022-10-06T09:54:20.892Z,15.79
2022-10-06T09:59:22.860Z,15.96
2022-10-06T10:04:20.613Z,15.93
2022-10-06T10:09:29.868Z,16.05
2022-10-06T10:14:22.900Z,16.26
2022-10-06T10:19:24.513Z,16.45
2022-10-06T10:24:22.482Z,16.51
2022-10-06T10:29:37.063Z,16.55
2022-10-06T10:34:39.211Z,16.59
2022-10-06T10:39:33.319Z,16.82
2022-10-06T10:44:29.148Z,16.97
2022-10-06T10:49:23.377Z,17.03
2022-10-06T10:54:19.328Z,17.08
2022-10-06T10:59:14.073Z,17.11
2022-10-06T11:04:04.231Z,17.02
2022-10-06T11:09:08.626Z,16.92
2022-10-06T11:14:00.108Z,16.89
2022-10-06T11:19:11.479Z,16.89
2022-10-06T11:24:15.886Z,16.75
2022-10-06T11:29:11.815Z,16.62
2022-10-06T11:34:03.255Z,16.67
2022-10-06T11:38:56.851Z,16.73
2022-10-06T11:43:55.243Z,16.59
2022-10-06T11:48:45.438Z,16.44
2022-10-06T11:53:43.068Z,16.41
2022-10-06T11:58:54.787Z,16.65
2022-10-06T12:03:51.947Z,16.57
2022-10-06T12:08:42.668Z,16.49
2022-10-06T12:14:26.637Z,16.45
2022-10-06T12:18:57.197Z,16.61
2022-10-06T12:23:57.982Z,16.72
2022-10-06T12:28:54.331Z,16.91
2022-10-06T12:33:45.922Z,17.16
2022-10-06T12:39:05.365Z,17.25
2022-10-06T12:44:01.044Z,17.31
2022-10-06T12:48:56.861Z,17.39
2022-10-06T12:53:58.437Z,17.48
2022-10-06T12:58:48.898Z,17.50
2022-10-06T13:03:39.780Z,17.40
2022-10-06T13:08:32.307Z,17.43
2022-10-06T13:13:27.912Z,17.37
2022-10-06T13:18:19.857Z,17.28
2022-10-06T13:23:23.751Z,17.14
2022-10-06T13:28:28.368Z,17.18
2022-10-06T13:33:18.564Z,17.30
2022-10-06T13:38:11.687Z,17.30
2022-10-06T13:43:02.757Z,17.31
2022-10-06T13:48:05.061Z,17.32
2022-10-06T13:52:56.127Z,17.43
2022-10-06T13:57:49.568Z,17.54
2022-10-06T14:02:39.824Z,17.56
2022-10-06T14:07:32.654Z,17.59
2022-10-06T14:12:23.470Z,17.62
2022-10-06T14:17:19.810Z,17.60
2022-10-06T14:22:30.227Z,17.67
2022-10-06T14:27:24.943Z,17.67
2022-10-06T14:32:17.844Z,17.53
2022-10-06T14:37:15.483Z,17.45
2022-10-06T14:42:06.169Z,17.39
2022-10-06T14:46:58.812Z,17.26
2022-10-06T14:51:56.127Z,17.19
2022-10-06T14:56:48.276Z,17.03
2022-10-06T15:01:40.702Z,16.99
2022-10-06T15:06:45.823Z,16.94
2022-10-06T15:11:35.906Z,16.85
2022-10-06T15:16:26.543Z,16.88
2022-10-06T15:21:16.538Z,16.79
2022-10-06T15:26:21.964Z,16.75
2022-10-06T15:31:12.490Z,16.72
2022-10-06T15:36:18.161Z,16.68
2022-10-06T15:41:11.081Z,16.62
2022-10-06T15:46:03.998Z,16.56
2022-10-06T15:50:54.123Z,16.48
2022-10-06T15:55:48.555Z,16.44
2022-10-06T16:00:44.434Z,16.39
2022-10-06T16:05:48.845Z,16.33
2022-10-06T16:10:39.018Z,16.25
2022-10-06T16:15:32.122Z,16.20
2022-10-06T16:20:24.990Z,16.13
2022-10-06T16:25:14.823Z,16.05
2022-10-06T16:30:05.451Z,16.02
2022-10-06T16:34:56.064Z,15.94
2022-10-06T16:39:51.405Z,15.91
2022-10-06T16:44:42.079Z,15.85
2022-10-06T16:49:34.093Z,15.77
2022-10-06T16:54:23.844Z,15.70
2022-10-06T16:59:27.011Z,15.60
2022-10-06T17:04:19.396Z,15.51
2022-10-06T17:09:11.944Z,15.45
2022-10-06T17:14:01.367Z,15.38
2022-10-06T17:18:54.382Z,15.29
2022-10-06T17:23:46.594Z,15.19
2022-10-06T17:28:39.725Z,15.09
2022-10-06T17:33:34.663Z,14.95
2022-10-06T17:38:28.090Z,14.85
2022-10-06T17:43:18.232Z,14.75
2022-10-06T17:48:10.994Z,14.64
2022-10-06T17:53:01.984Z,14.47
2022-10-06T17:58:01.471Z,14.36
2022-10-06T18:02:51.983Z,14.28
2022-10-06T18:07:43.410Z,14.22
2022-10-06T18:12:39.170Z,14.15
2022-10-06T18:17:32.418Z,14.06
2022-10-06T18:22:22.366Z,13.95
2022-10-06T18:27:13.733Z,13.89
2022-10-06T18:32:40.488Z,13.82
2022-10-06T18:37:20.548Z,13.79
2022-10-06T18:42:11.873Z,13.70
2022-10-06T18:47:14.284Z,13.64
2022-10-06T18:52:05.398Z,13.57
2022-10-06T18:56:58.546Z,13.53
2022-10-06T19:01:49.728Z,13.48
2022-10-06T19:06:42.799Z,13.41
2022-10-06T19:11:49.104Z,13.32
2022-10-06T19:16:41.985Z,13.25
2022-10-06T19:21:31.519Z,13.17
2022-10-06T19:26:22.830Z,13.11
2022-10-06T19:31:20.406Z,13.06
2022-10-06T19:36:17.301Z,13.00
2022-10-06T19:41:19.545Z,12.93
2022-10-06T19:46:09.661Z,12.87
2022-10-06T19:51:00.157Z,12.80
2022-10-06T19:55:52.984Z,12.74
2022-10-06T20:00:44.861Z,12.68
2022-10-06T20:05:38.546Z,12.62
2022-10-06T20:10:28.670Z,12.55
2022-10-06T20:15:21.487Z,12.52
2022-10-06T20:20:11.816Z,12.47
2022-10-06T20:25:02.640Z,12.43
2022-10-06T20:29:53.520Z,12.42
2022-10-06T20:34:46.296Z,12.41
2022-10-06T20:39:49.228Z,12.37
2022-10-06T20:44:39.368Z,12.30
2022-10-06T20:49:32.634Z,12.22
2022-10-06T20:54:26.785Z,12.16
2022-10-06T20:59:16.996Z,12.14
2022-10-06T21:04:07.570Z,12.11
2022-10-06T21:09:01.506Z,12.05
2022-10-06T21:13:55.054Z,12.02
2022-10-06T21:18:45.946Z,11.97
2022-10-06T21:23:39.763Z,11.94
2022-10-06T21:28:29.919Z,11.90
2022-10-06T21:33:23.718Z,11.88
2022-10-06T21:38:14.448Z,11.87
2022-10-06T21:43:04.264Z,11.84
2022-10-06T21:47:55.213Z,11.83
2022-10-06T21:52:47.907Z,11.82
2022-10-06T21:57:37.993Z,11.78
2022-10-06T22:02:27.929Z,11.76
2022-10-06T22:07:18.288Z,11.71
2022-10-06T22:12:11.017Z,11.68
2022-10-06T22:17:04.508Z,11.63
2022-10-06T22:21:54.895Z,11.61
2022-10-06T22:26:45.610Z,11.59
2022-10-06T22:31:40.202Z,11.54
2022-10-06T22:36:31.183Z,11.50
2022-10-06T22:41:21.676Z,11.47
2022-10-06T22:46:13.760Z,11.47
2022-10-06T22:51:06.602Z,11.45
2022-10-06T22:55:57.096Z,11.43
2022-10-06T23:00:48.133Z,11.39
2022-10-06T23:05:38.311Z,11.37
2022-10-06T23:10:34.384Z,11.33
2022-10-06T23:15:25.510Z,11.27
2022-10-06T23:20:15.559Z,11.22
2022-10-06T23:25:05.315Z,11.18
2022-10-06T23:29:57.913Z,11.13
2022-10-06T23:34:48.028Z,11.07
2022-10-06T23:39:38.360Z,11.02
2022-10-06T23:44:28.197Z,11.00
2022-10-06T23:49:20.939Z,10.97
2022-10-06T23:54:11.523Z,10.95
2022-10-06T23:59:01.622Z,10.93
